sensor_id;sensor_type;location;lat;lon;timestamp;pressure;altitude;pressure_sealevel;temperature;humidity
60319;BME280;46163;52.306;5.634;2023-03-14T00:01:09;98646.44;;;17.30;53.85
60319;BME280;46163;52.306;5.634;2023-03-14T00:03:34;98648.59;;;17.28;53.79
60319;BME280;46163;52.306;5.634;2023-03-14T00:06:03;98650.22;;;17.29;53.93
60319;BME280;46163;52.306;5.634;2023-03-14T00:08:29;98651.28;;;17.28;53.40
60319;BME280;46163;52.306;5.634;2023-03-14T00:10:55;98655.06;;;17.27;53.19
60319;BME280;46163;52.306;5.634;2023-03-14T00:13:20;98638.22;;;17.08;53.42
60319;BME280;46163;52.306;5.634;2023-03-14T00:15:46;98663.53;;;17.20;53.36
60319;BME280;46163;52.306;5.634;2023-03-14T00:18:11;98669.50;;;17.17;53.35
60319;BME280;46163;52.306;5.634;2023-03-14T00:20:37;98672.78;;;17.14;53.22
60319;BME280;46163;52.306;5.634;2023-03-14T00:23:02;98659.13;;;17.11;53.32
60319;BME280;46163;52.306;5.634;2023-03-14T00:25:28;98662.91;;;17.10;53.20
60319;BME280;46163;52.306;5.634;2023-03-14T00:27:53;98665.09;;;17.08;53.26
60319;BME280;46163;52.306;5.634;2023-03-14T00:30:19;98670.78;;;17.06;53.34
60319;BME280;46163;52.306;5.634;2023-03-14T00:32:44;98661.44;;;17.04;53.25
60319;BME280;46163;52.306;5.634;2023-03-14T00:35:10;98657.94;;;17.03;53.05
60319;BME280;46163;52.306;5.634;2023-03-14T00:37:35;98659.31;;;17.01;53.08
60319;BME280;46163;52.306;5.634;2023-03-14T00:40:01;98649.75;;;16.94;53.19
60319;BME280;46163;52.306;5.634;2023-03-14T00:42:26;98659.91;;;16.98;53.13
60319;BME280;46163;52.306;5.634;2023-03-14T00:44:52;98665.88;;;16.94;52.83
60319;BME280;46163;52.306;5.634;2023-03-14T00:47:18;98666.69;;;16.95;53.10
60319;BME280;46163;52.306;5.634;2023-03-14T00:49:43;98672.63;;;16.92;52.98
60319;BME280;46163;52.306;5.634;2023-03-14T00:52:09;98666.75;;;16.90;53.41
60319;BME280;46163;52.306;5.634;2023-03-14T00:54:35;98661.38;;;16.90;53.09
60319;BME280;46163;52.306;5.634;2023-03-14T00:57:00;98658.19;;;16.88;53.05
60319;BME280;46163;52.306;5.634;2023-03-14T00:59:26;98632.38;;;16.73;52.98
60319;BME280;46163;52.306;5.634;2023-03-14T01:01:51;98664.97;;;16.85;53.14
60319;BME280;46163;52.306;5.634;2023-03-14T01:04:17;98663.34;;;16.84;53.04
60319;BME280;46163;52.306;5.634;2023-03-14T01:06:42;98672.50;;;16.83;53.11
60319;BME280;46163;52.306;5.634;2023-03-14T01:09:08;98664.75;;;16.82;53.06
60319;BME280;46163;52.306;5.634;2023-03-14T01:11:34;98665.84;;;16.81;53.10
60319;BME280;46163;52.306;5.634;2023-03-14T01:14:01;98658.88;;;16.80;52.94
60319;BME280;46163;52.306;5.634;2023-03-14T01:16:29;98655.38;;;16.79;53.03
60319;BME280;46163;52.306;5.634;2023-03-14T01:18:55;98650.59;;;16.76;52.93
60319;BME280;46163;52.306;5.634;2023-03-14T01:21:25;98658.63;;;16.76;52.90
60319;BME280;46163;52.306;5.634;2023-03-14T01:23:53;98658.94;;;16.75;53.06
60319;BME280;46163;52.306;5.634;2023-03-14T01:26:21;98658.94;;;16.75;53.25
60319;BME280;46163;52.306;5.634;2023-03-14T01:28:49;98672.66;;;16.73;53.01
60319;BME280;46163;52.306;5.634;2023-03-14T01:31:15;98668.41;;;16.72;53.08
60319;BME280;46163;52.306;5.634;2023-03-14T01:33:41;98669.00;;;16.69;53.17
60319;BME280;46163;52.306;5.634;2023-03-14T01:36:08;98675.94;;;16.70;52.96
60319;BME280;46163;52.306;5.634;2023-03-14T01:38:35;98675.44;;;16.68;53.00
60319;BME280;46163;52.306;5.634;2023-03-14T01:41:02;98668.44;;;16.67;52.99
60319;BME280;46163;52.306;5.634;2023-03-14T01:43:28;98667.63;;;16.66;52.96
60319;BME280;46163;52.306;5.634;2023-03-14T01:48:43;98663.66;;;16.64;52.98
60319;BME280;46163;52.306;5.634;2023-03-14T01:51:21;98653.50;;;16.61;52.94
60319;BME280;46163;52.306;5.634;2023-03-14T01:53:50;98653.06;;;16.54;53.17
60319;BME280;46163;52.306;5.634;2023-03-14T01:56:18;98662.38;;;16.61;52.86
60319;BME280;46163;52.306;5.634;2023-03-14T01:58:47;98664.25;;;16.61;52.88
60319;BME280;46163;52.306;5.634;2023-03-14T02:01:17;98651.13;;;16.59;53.03
60319;BME280;46163;52.306;5.634;2023-03-14T02:03:51;98646.03;;;16.58;52.80
60319;BME280;46163;52.306;5.634;2023-03-14T02:06:19;98645.22;;;16.57;52.87
60319;BME280;46163;52.306;5.634;2023-03-14T02:08:49;98637.47;;;16.56;52.90
60319;BME280;46163;52.306;5.634;2023-03-14T02:11:15;98643.63;;;16.56;52.91
60319;BME280;46163;52.306;5.634;2023-03-14T02:13:42;98640.44;;;16.54;52.87
60319;BME280;46163;52.306;5.634;2023-03-14T02:16:08;98645.03;;;16.54;52.81
60319;BME280;46163;52.306;5.634;2023-03-14T02:18:34;98646.41;;;16.51;53.00
60319;BME280;46163;52.306;5.634;2023-03-14T02:29:33;98627.41;;;16.48;53.09
60319;BME280;46163;52.306;5.634;2023-03-14T02:32:00;98628.19;;;16.48;53.03
60319;BME280;46163;52.306;5.634;2023-03-14T02:34:26;98635.44;;;16.48;53.10
60319;BME280;46163;52.306;5.634;2023-03-14T02:36:52;98586.97;;;16.25;53.02
60319;BME280;46163;52.306;5.634;2023-03-14T02:39:39;98612.44;;;16.42;52.72
60319;BME280;46163;52.306;5.634;2023-03-14T02:42:06;98618.34;;;16.44;53.10
60319;BME280;46163;52.306;5.634;2023-03-14T02:44:32;98619.44;;;16.43;52.88
60319;BME280;46163;52.306;5.634;2023-03-14T02:46:58;98619.44;;;16.43;52.98
60319;BME280;46163;52.306;5.634;2023-03-14T02:49:25;98618.63;;;16.42;52.89
60319;BME280;46163;52.306;5.634;2023-03-14T02:51:52;98609.75;;;16.42;53.04
60319;BME280;46163;52.306;5.634;2023-03-14T02:54:19;98610.84;;;16.40;53.11
60319;BME280;46163;52.306;5.634;2023-03-14T02:56:45;98593.47;;;16.38;52.67
60319;BME280;46163;52.306;5.634;2023-03-14T02:59:10;98602.31;;;16.38;52.90
60319;BME280;46163;52.306;5.634;2023-03-14T03:01:36;98595.34;;;16.37;52.89
60319;BME280;46163;52.306;5.634;2023-03-14T03:04:01;98601.50;;;16.38;52.84
60319;BME280;46163;52.306;5.634;2023-03-14T03:06:27;98607.97;;;16.37;53.02
60319;BME280;46163;52.306;5.634;2023-03-14T03:08:52;98616.03;;;16.37;52.90
60319;BME280;46163;52.306;5.634;2023-03-14T03:11:18;98606.38;;;16.36;53.02
60319;BME280;46163;52.306;5.634;2023-03-14T03:13:43;98601.31;;;16.34;52.85
60319;BME280;46163;52.306;5.634;2023-03-14T03:16:09;98599.72;;;16.33;52.91
60319;BME280;46163;52.306;5.634;2023-03-14T03:18:34;98598.88;;;16.33;52.98
60319;BME280;46163;52.306;5.634;2023-03-14T03:21:01;98596.00;;;16.29;53.19
60319;BME280;46163;52.306;5.634;2023-03-14T03:23:28;98599.19;;;16.31;52.91
60319;BME280;46163;52.306;5.634;2023-03-14T03:25:54;98594.91;;;16.30;53.07
60319;BME280;46163;52.306;5.634;2023-03-14T03:28:20;98598.41;;;16.31;52.94
60319;BME280;46163;52.306;5.634;2023-03-14T03:30:45;98594.13;;;16.30;52.81
60319;BME280;46163;52.306;5.634;2023-03-14T03:33:12;98592.53;;;16.29;52.86
60319;BME280;46163;52.306;5.634;2023-03-14T03:38:10;98579.97;;;16.24;52.99
60319;BME280;46163;52.306;5.634;2023-03-14T03:40:36;98583.19;;;16.26;52.93
60319;BME280;46163;52.306;5.634;2023-03-14T03:43:02;98584.28;;;16.25;52.90
60319;BME280;46163;52.306;5.634;2023-03-14T03:45:29;98575.44;;;16.25;52.80
60319;BME280;46163;52.306;5.634;2023-03-14T03:47:55;98588.03;;;16.24;52.81
60319;BME280;46163;52.306;5.634;2023-03-14T03:50:20;98577.59;;;16.23;53.11
60319;BME280;46163;52.306;5.634;2023-03-14T03:52:45;98581.34;;;16.22;52.96
60319;BME280;46163;52.306;5.634;2023-03-14T03:55:11;98585.44;;;16.19;53.06
60319;BME280;46163;52.306;5.634;2023-03-14T03:57:36;98587.53;;;16.22;52.83
60319;BME280;46163;52.306;5.634;2023-03-14T04:00:03;98583.03;;;16.18;52.80
60319;BME280;46163;52.306;5.634;2023-03-14T04:02:30;98582.44;;;16.21;53.20
60319;BME280;46163;52.306;5.634;2023-03-14T04:04:55;98585.44;;;16.19;52.78
60319;BME280;46163;52.306;5.634;2023-03-14T04:07:20;98581.94;;;16.19;52.74
60319;BME280;46163;52.306;5.634;2023-03-14T04:09:46;98575.78;;;16.18;52.97
60319;BME280;46163;52.306;5.634;2023-03-14T04:12:11;98579.28;;;16.19;53.01
60319;BME280;46163;52.306;5.634;2023-03-14T04:14:37;98581.16;;;16.18;52.85
60319;BME280;46163;52.306;5.634;2023-03-14T04:17:03;98575.28;;;16.16;52.83
60319;BME280;46163;52.306;5.634;2023-03-14T04:19:28;98580.66;;;16.16;52.74
60319;BME280;46163;52.306;5.634;2023-03-14T04:21:54;98580.13;;;16.14;52.78
60319;BME280;46163;52.306;5.634;2023-03-14T04:24:19;98582.81;;;16.14;52.63
60319;BME280;46163;52.306;5.634;2023-03-14T04:26:45;98579.34;;;16.14;52.95
60319;BME280;46163;52.306;5.634;2023-03-14T04:29:10;98576.94;;;16.12;52.98
60319;BME280;46163;52.306;5.634;2023-03-14T04:31:35;98585.78;;;16.13;52.99
60319;BME280;46163;52.306;5.634;2023-03-14T04:34:01;98581.31;;;16.08;52.74
60319;BME280;46163;52.306;5.634;2023-03-14T04:36:26;98574.56;;;16.10;53.00
60319;BME280;46163;52.306;5.634;2023-03-14T04:38:52;98570.78;;;16.11;52.81
60319;BME280;46163;52.306;5.634;2023-03-14T04:41:17;98570.00;;;16.11;52.78
60319;BME280;46163;52.306;5.634;2023-03-14T04:43:43;98576.44;;;16.10;52.71
60319;BME280;46163;52.306;5.634;2023-03-14T04:46:08;98566.81;;;16.09;52.89
60319;BME280;46163;52.306;5.634;2023-03-14T04:48:34;98568.41;;;16.10;52.79
60319;BME280;46163;52.306;5.634;2023-03-14T04:51:02;98563.53;;;16.12;52.77
60319;BME280;46163;52.306;5.634;2023-03-14T04:53:28;98560.25;;;16.15;52.73
60319;BME280;46163;52.306;5.634;2023-03-14T04:55:55;98569.63;;;16.18;52.66
60319;BME280;46163;52.306;5.634;2023-03-14T04:58:22;98566.34;;;16.21;52.65
60319;BME280;46163;52.306;5.634;2023-03-14T05:00:48;98549.44;;;16.20;52.71
60319;BME280;46163;52.306;5.634;2023-03-14T05:03:16;98561.13;;;16.29;52.43
60319;BME280;46163;52.306;5.634;2023-03-14T05:05:41;98549.78;;;16.32;52.29
60319;BME280;46163;52.306;5.634;2023-03-14T05:08:07;98554.22;;;16.42;52.32
60319;BME280;46163;52.306;5.634;2023-03-14T05:10:33;98544.75;;;16.45;52.20
60319;BME280;46163;52.306;5.634;2023-03-14T05:13:00;98560.63;;;16.60;51.99
60319;BME280;46163;52.306;5.634;2023-03-14T05:15:26;98568.56;;;16.65;52.00
60319;BME280;46163;52.306;5.634;2023-03-14T05:17:51;98557.25;;;16.68;51.55
60319;BME280;46163;52.306;5.634;2023-03-14T05:20:17;98564.63;;;16.76;51.47
60319;BME280;46163;52.306;5.634;2023-03-14T05:22:43;98561.25;;;16.84;51.50
60319;BME280;46163;52.306;5.634;2023-03-14T05:25:08;98558.19;;;16.91;51.36
60319;BME280;46163;52.306;5.634;2023-03-14T05:27:35;98561.28;;;16.98;51.27
60319;BME280;46163;52.306;5.634;2023-03-14T05:30:02;98546.66;;;17.04;50.85
60319;BME280;46163;52.306;5.634;2023-03-14T05:32:27;98552.41;;;17.11;50.88
60319;BME280;46163;52.306;5.634;2023-03-14T05:34:53;98546.97;;;17.16;50.54
60319;BME280;46163;52.306;5.634;2023-03-14T05:37:23;98546.06;;;17.21;50.63
60319;BME280;46163;52.306;5.634;2023-03-14T05:39:48;98544.56;;;17.29;50.40
60319;BME280;46163;52.306;5.634;2023-03-14T05:42:14;98546.97;;;17.30;50.47
60319;BME280;46163;52.306;5.634;2023-03-14T05:44:39;98556.50;;;17.36;50.36
60319;BME280;46163;52.306;5.634;2023-03-14T05:47:05;98552.44;;;17.39;50.14
60319;BME280;46163;52.306;5.634;2023-03-14T05:49:31;98554.50;;;17.42;50.32
60319;BME280;46163;52.306;5.634;2023-03-14T05:51:57;98551.50;;;17.43;50.10
60319;BME280;46163;52.306;5.634;2023-03-14T05:54:22;98557.69;;;17.44;49.83
60319;BME280;46163;52.306;5.634;2023-03-14T05:56:47;98552.78;;;17.46;50.09
60319;BME280;46163;52.306;5.634;2023-03-14T05:59:13;98548.25;;;17.46;50.06
60319;BME280;46163;52.306;5.634;2023-03-14T06:01:40;98546.34;;;17.47;50.36
60319;BME280;46163;52.306;5.634;2023-03-14T06:04:05;98541.75;;;17.47;49.83
60319;BME280;46163;52.306;5.634;2023-03-14T06:06:31;98533.19;;;17.45;50.04
60319;BME280;46163;52.306;5.634;2023-03-14T06:08:56;98532.59;;;17.48;49.72
60319;BME280;46163;52.306;5.634;2023-03-14T06:11:22;98536.09;;;17.49;50.08
60319;BME280;46163;52.306;5.634;2023-03-14T06:13:47;98538.47;;;17.50;49.91
60319;BME280;46163;52.306;5.634;2023-03-14T06:16:12;98529.91;;;17.48;50.01
60319;BME280;46163;52.306;5.634;2023-03-14T06:18:39;98531.50;;;17.49;49.83
60319;BME280;46163;52.306;5.634;2023-03-14T06:21:07;98541.75;;;17.47;50.17
60319;BME280;46163;52.306;5.634;2023-03-14T06:23:32;98525.63;;;17.47;50.68
60319;BME280;46163;52.306;5.634;2023-03-14T06:25:58;98530.69;;;17.49;50.64
60319;BME280;46163;52.306;5.634;2023-03-14T06:28:23;98527.22;;;17.48;50.67
60319;BME280;46163;52.306;5.634;2023-03-14T06:30:49;98535.16;;;17.53;50.93
60319;BME280;46163;52.306;5.634;2023-03-14T06:33:14;98551.81;;;17.56;50.65
60319;BME280;46163;52.306;5.634;2023-03-14T06:35:40;98579.50;;;17.56;51.02
60319;BME280;46163;52.306;5.634;2023-03-14T06:38:05;98589.66;;;17.59;50.96
60319;BME280;46163;52.306;5.634;2023-03-14T06:40:31;98612.44;;;17.62;50.95
60319;BME280;46163;52.306;5.634;2023-03-14T06:42:57;98631.78;;;17.64;50.94
60319;BME280;46163;52.306;5.634;2023-03-14T06:45:22;98650.63;;;17.64;51.04
60319;BME280;46163;52.306;5.634;2023-03-14T06:47:48;98659.66;;;17.68;50.94
60319;BME280;46163;52.306;5.634;2023-03-14T06:50:14;98667.16;;;17.71;50.88
60319;BME280;46163;52.306;5.634;2023-03-14T06:52:39;98666.88;;;17.72;50.59
60319;BME280;46163;52.306;5.634;2023-03-14T06:55:16;98683.50;;;17.74;50.51
60319;BME280;46163;52.306;5.634;2023-03-14T06:57:42;98678.44;;;17.73;50.57
60319;BME280;46163;52.306;5.634;2023-03-14T07:00:10;98699.84;;;17.78;50.59
60319;BME280;46163;52.306;5.634;2023-03-14T07:02:36;98703.31;;;17.78;50.25
60319;BME280;46163;52.306;5.634;2023-03-14T07:05:01;98717.28;;;17.80;50.23
60319;BME280;46163;52.306;5.634;2023-03-14T07:07:28;98716.47;;;17.80;50.37
60319;BME280;46163;52.306;5.634;2023-03-14T07:09:54;98722.97;;;17.79;49.97
60319;BME280;46163;52.306;5.634;2023-03-14T07:12:20;98734.81;;;17.78;50.26
60319;BME280;46163;52.306;5.634;2023-03-14T07:14:45;98734.81;;;17.78;50.30
60319;BME280;46163;52.306;5.634;2023-03-14T07:17:13;98745.41;;;17.74;49.97
60319;BME280;46163;52.306;5.634;2023-03-14T07:19:39;98761.72;;;17.78;50.09
60319;BME280;46163;52.306;5.634;2023-03-14T07:22:05;98745.75;;;17.68;50.41
60319;BME280;46163;52.306;5.634;2023-03-14T07:24:30;98767.41;;;17.76;50.31
60319;BME280;46163;52.306;5.634;2023-03-14T07:26:56;98771.50;;;17.74;50.16
60319;BME280;46163;52.306;5.634;2023-03-14T07:29:22;98783.06;;;17.74;50.45
60319;BME280;46163;52.306;5.634;2023-03-14T07:31:47;98791.44;;;17.73;50.94
60319;BME280;46163;52.306;5.634;2023-03-14T07:34:15;98791.44;;;17.73;51.06
60319;BME280;46163;52.306;5.634;2023-03-14T07:36:40;98802.19;;;17.73;51.05
60319;BME280;46163;52.306;5.634;2023-03-14T07:39:06;98806.78;;;17.72;51.18
60319;BME280;46163;52.306;5.634;2023-03-14T07:41:32;98840.34;;;17.75;50.94
60319;BME280;46163;52.306;5.634;2023-03-14T07:43:57;98841.00;;;17.67;51.02
60319;BME280;46163;52.306;5.634;2023-03-14T07:46:23;98859.69;;;17.77;50.89
60319;BME280;46163;52.306;5.634;2023-03-14T07:48:48;98877.41;;;17.78;50.75
60319;BME280;46163;52.306;5.634;2023-03-14T07:51:14;98885.78;;;17.76;50.36
60319;BME280;46163;52.306;5.634;2023-03-14T07:53:39;98896.63;;;17.71;50.51
60319;BME280;46163;52.306;5.634;2023-03-14T07:56:05;98918.38;;;17.75;50.31
60319;BME280;46163;52.306;5.634;2023-03-14T07:58:30;98924.31;;;17.72;50.98
60319;BME280;46163;52.306;5.634;2023-03-14T08:00:58;98922.72;;;17.71;51.63
60319;BME280;46163;52.306;5.634;2023-03-14T08:03:24;98941.03;;;17.69;51.11
60319;BME280;46163;52.306;5.634;2023-03-14T08:05:50;98956.03;;;17.75;51.17
60319;BME280;46163;52.306;5.634;2023-03-14T08:08:16;98970.28;;;17.75;51.44
60319;BME280;46163;52.306;5.634;2023-03-14T08:10:43;98985.34;;;17.76;51.34
60319;BME280;46163;52.306;5.634;2023-03-14T08:13:09;98995.22;;;17.81;51.13
60319;BME280;46163;52.306;5.634;2023-03-14T08:15:35;98999.59;;;17.77;51.44
60319;BME280;46163;52.306;5.634;2023-03-14T08:18:02;99018.06;;;17.84;51.38
60319;BME280;46163;52.306;5.634;2023-03-14T08:20:28;99022.53;;;17.88;51.41
60319;BME280;46163;52.306;5.634;2023-03-14T08:22:58;99034.84;;;17.94;51.28
60319;BME280;46163;52.306;5.634;2023-03-14T08:25:24;99049.59;;;17.97;50.71
60319;BME280;46163;52.306;5.634;2023-03-14T08:27:50;99052.03;;;17.98;51.25
60319;BME280;46163;52.306;5.634;2023-03-14T08:30:18;99064.88;;;18.01;50.97
60319;BME280;46163;52.306;5.634;2023-03-14T08:32:44;99085.81;;;18.04;51.03
60319;BME280;46163;52.306;5.634;2023-03-14T08:35:10;99089.00;;;18.06;50.74
60319;BME280;46163;52.306;5.634;2023-03-14T08:37:36;99097.31;;;18.10;50.95
60319;BME280;46163;52.306;5.634;2023-03-14T08:40:03;99111.78;;;18.14;50.40
60319;BME280;46163;52.306;5.634;2023-03-14T08:42:36;99126.34;;;18.13;50.51
60319;BME280;46163;52.306;5.634;2023-03-14T08:45:03;99129.84;;;18.14;50.14
60319;BME280;46163;52.306;5.634;2023-03-14T08:47:28;99141.69;;;18.13;49.92
60319;BME280;46163;52.306;5.634;2023-03-14T08:49:54;99156.75;;;18.14;50.11
60319;BME280;46163;52.306;5.634;2023-03-14T08:52:19;99164.84;;;18.14;49.76
60319;BME280;46163;52.306;5.634;2023-03-14T08:54:45;99179.63;;;18.16;49.99
60319;BME280;46163;52.306;5.634;2023-03-14T08:57:11;99195.47;;;18.18;49.75
60319;BME280;46163;52.306;5.634;2023-03-14T08:59:36;99207.34;;;18.17;49.74
60319;BME280;46163;52.306;5.634;2023-03-14T09:02:02;99222.41;;;18.18;49.45
60319;BME280;46163;52.306;5.634;2023-03-14T09:04:31;99226.19;;;18.17;49.46
60319;BME280;46163;52.306;5.634;2023-03-14T09:06:57;99231.84;;;18.15;49.57
60319;BME280;46163;52.306;5.634;2023-03-14T09:09:24;99239.13;;;18.15;49.51
60319;BME280;46163;52.306;5.634;2023-03-14T09:11:50;99244.50;;;18.15;49.31
60319;BME280;46163;52.306;5.634;2023-03-14T09:14:16;99257.97;;;18.15;49.47
60319;BME280;46163;52.306;5.634;2023-03-14T09:16:41;99262.84;;;18.13;49.34
60319;BME280;46163;52.306;5.634;2023-03-14T09:19:07;99277.91;;;18.14;48.88
60319;BME280;46163;52.306;5.634;2023-03-14T09:21:32;99285.19;;;18.13;48.96
60319;BME280;46163;52.306;5.634;2023-03-14T09:23:58;99285.19;;;18.13;49.11
60319;BME280;46163;52.306;5.634;2023-03-14T09:26:23;99299.16;;;18.15;48.98
60319;BME280;46163;52.306;5.634;2023-03-14T09:28:55;99309.13;;;18.15;49.12
60319;BME280;46163;52.306;5.634;2023-03-14T09:31:20;99307.22;;;18.15;49.36
60319;BME280;46163;52.306;5.634;2023-03-14T09:33:46;99318.53;;;18.17;49.79
60319;BME280;46163;52.306;5.634;2023-03-14T09:36:12;99319.66;;;18.11;49.43
60319;BME280;46163;52.306;5.634;2023-03-14T09:38:37;99333.59;;;18.18;50.05
60319;BME280;46163;52.306;5.634;2023-03-14T09:41:56;99343.56;;;18.18;50.03
60319;BME280;46163;52.306;5.634;2023-03-14T09:44:05;99358.94;;;18.17;50.34
60319;BME280;46163;52.306;5.634;2023-03-14T09:46:35;99369.41;;;18.19;50.48
60319;BME280;46163;52.306;5.634;2023-03-14T09:49:01;99378.56;;;18.18;50.64
60319;BME280;46163;52.306;5.634;2023-03-14T09:51:28;99393.13;;;18.17;50.40
60319;BME280;46163;52.306;5.634;2023-03-14T09:53:54;99400.09;;;18.18;50.52
60319;BME280;46163;52.306;5.634;2023-03-14T09:56:23;99402.81;;;18.18;51.17
60319;BME280;46163;52.306;5.634;2023-03-14T09:58:59;99404.13;;;18.20;51.08
60319;BME280;46163;52.306;5.634;2023-03-14T10:01:28;99425.88;;;18.24;50.71
60319;BME280;46163;52.306;5.634;2023-03-14T10:03:56;99432.91;;;18.25;50.53
60319;BME280;46163;52.306;5.634;2023-03-14T10:06:26;99432.13;;;18.19;50.21
60319;BME280;46163;52.306;5.634;2023-03-14T10:08:52;99454.47;;;18.20;50.28
60319;BME280;46163;52.306;5.634;2023-03-14T10:11:19;99460.66;;;18.20;50.70
60319;BME280;46163;52.306;5.634;2023-03-14T10:14:06;99477.09;;;18.19;50.61
60319;BME280;46163;52.306;5.634;2023-03-14T10:16:35;99488.91;;;18.23;50.40
60319;BME280;46163;52.306;5.634;2023-03-14T10:19:24;99487.81;;;18.24;50.28
60319;BME280;46163;52.306;5.634;2023-03-14T10:21:53;99502.91;;;18.25;50.15
60319;BME280;46163;52.306;5.634;2023-03-14T10:24:28;99513.09;;;18.28;50.47
60319;BME280;46163;52.306;5.634;2023-03-14T10:27:05;99524.38;;;18.30;50.22
60319;BME280;46163;52.306;5.634;2023-03-14T10:29:52;99521.75;;;18.25;49.76
60319;BME280;46163;52.306;5.634;2023-03-14T10:32:20;99536.81;;;18.26;49.83
60319;BME280;46163;52.306;5.634;2023-03-14T10:35:24;99547.06;;;18.24;50.07
60319;BME280;46163;52.306;5.634;2023-03-14T10:37:55;99561.38;;;18.19;49.54
60319;BME280;46163;52.306;5.634;2023-03-14T10:40:27;99564.38;;;18.13;48.13
60319;BME280;46163;52.306;5.634;2023-03-14T10:42:53;99578.13;;;18.11;49.29
60319;BME280;46163;52.306;5.634;2023-03-14T10:45:39;99593.19;;;18.12;49.52
60319;BME280;46163;52.306;5.634;2023-03-14T10:48:18;99606.66;;;18.12;49.99
60319;BME280;46163;52.306;5.634;2023-03-14T10:51:07;99616.13;;;18.10;50.12
60319;BME280;46163;52.306;5.634;2023-03-14T10:53:48;99637.59;;;18.15;49.99
60319;BME280;46163;52.306;5.634;2023-03-14T10:56:20;99639.22;;;18.16;49.74
60319;BME280;46163;52.306;5.634;2023-03-14T10:58:50;99657.00;;;18.17;48.76
60319;BME280;46163;52.306;5.634;2023-03-14T11:01:27;99662.63;;;18.15;48.07
60319;BME280;46163;52.306;5.634;2023-03-14T11:04:01;99671.34;;;18.07;47.41
60319;BME280;46163;52.306;5.634;2023-03-14T11:12:04;99699.56;;;18.10;45.91
60319;BME280;46163;52.306;5.634;2023-03-14T11:14:37;99725.13;;;18.12;47.38
60319;BME280;46163;52.306;5.634;2023-03-14T11:17:20;99715.44;;;18.16;49.04
60319;BME280;46163;52.306;5.634;2023-03-14T11:22:23;99750.69;;;18.20;48.68
60319;BME280;46163;52.306;5.634;2023-03-14T11:27:44;99760.94;;;18.18;48.59
60319;BME280;46163;52.306;5.634;2023-03-14T11:30:28;99783.50;;;18.22;49.19
60319;BME280;46163;52.306;5.634;2023-03-14T11:35:44;99792.94;;;18.24;48.43
60319;BME280;46163;52.306;5.634;2023-03-14T11:38:46;99805.06;;;18.22;48.39
60319;BME280;46163;52.306;5.634;2023-03-14T11:41:20;99820.69;;;18.25;48.95
60319;BME280;46163;52.306;5.634;2023-03-14T11:43:49;99820.16;;;18.18;49.33
60319;BME280;46163;52.306;5.634;2023-03-14T11:46:23;99832.25;;;18.25;48.77
60319;BME280;46163;52.306;5.634;2023-03-14T11:51:35;99856.22;;;18.27;48.17
60319;BME280;46163;52.306;5.634;2023-03-14T11:54:11;99841.16;;;18.26;49.19
60319;BME280;46163;52.306;5.634;2023-03-14T11:59:26;99865.38;;;18.26;49.11
60319;BME280;46163;52.306;5.634;2023-03-14T12:07:29;99881.53;;;18.21;48.03
60319;BME280;46163;52.306;5.634;2023-03-14T12:09:55;99889.63;;;18.21;49.92
60319;BME280;46163;52.306;5.634;2023-03-14T12:12:25;99885.59;;;18.18;50.42
60319;BME280;46163;52.306;5.634;2023-03-14T12:14:58;99897.69;;;18.21;50.00
60319;BME280;46163;52.306;5.634;2023-03-14T12:17:27;99904.16;;;18.20;48.79
60319;BME280;46163;52.306;5.634;2023-03-14T12:25:19;99920.34;;;18.20;49.28
60319;BME280;46163;52.306;5.634;2023-03-14T12:38:14;99943.47;;;18.21;50.09
60319;BME280;46163;52.306;5.634;2023-03-14T12:43:32;99951.03;;;18.19;50.16
60319;BME280;46163;52.306;5.634;2023-03-14T12:51:19;99963.41;;;18.15;49.14
60319;BME280;46163;52.306;5.634;2023-03-14T12:59:38;99965.84;;;18.16;48.91
60319;BME280;46163;52.306;5.634;2023-03-14T13:10:22;100008.66;;;18.18;48.56
60319;BME280;46163;52.306;5.634;2023-03-14T13:12:51;100016.75;;;18.18;48.76
60319;BME280;46163;52.306;5.634;2023-03-14T13:15:34;100027.25;;;18.14;48.98
60319;BME280;46163;52.306;5.634;2023-03-14T13:18:12;100023.75;;;18.14;48.50
60319;BME280;46163;52.306;5.634;2023-03-14T13:20:45;100031.84;;;18.08;48.64
60319;BME280;46163;52.306;5.634;2023-03-14T13:23:22;100042.06;;;18.12;48.02
60319;BME280;46163;52.306;5.634;2023-03-14T13:25:47;100055.53;;;18.12;48.99
60319;BME280;46163;52.306;5.634;2023-03-14T13:28:14;100063.59;;;18.17;48.60
60319;BME280;46163;52.306;5.634;2023-03-14T13:30:45;100070.31;;;18.14;48.34
60319;BME280;46163;52.306;5.634;2023-03-14T13:33:17;100076.78;;;18.13;48.81
60319;BME280;46163;52.306;5.634;2023-03-14T13:35:55;100072.22;;;18.14;48.73
60319;BME280;46163;52.306;5.634;2023-03-14T13:38:22;100080.84;;;18.16;49.41
60319;BME280;46163;52.306;5.634;2023-03-14T13:40:50;100080.28;;;18.14;49.30
60319;BME280;46163;52.306;5.634;2023-03-14T13:43:18;100087.84;;;18.17;49.34
60319;BME280;46163;52.306;5.634;2023-03-14T13:48:18;100098.63;;;18.17;48.50
60319;BME280;46163;52.306;5.634;2023-03-14T13:51:00;100112.59;;;18.14;48.44
60319;BME280;46163;52.306;5.634;2023-03-14T13:53:27;100115.84;;;18.16;47.76
60319;BME280;46163;52.306;5.634;2023-03-14T13:55:53;100126.88;;;18.09;47.64
60319;BME280;46163;52.306;5.634;2023-03-14T13:58:25;100121.50;;;18.09;48.48
60319;BME280;46163;52.306;5.634;2023-03-14T14:01:25;100155.69;;;18.08;48.27
60319;BME280;46163;52.306;5.634;2023-03-14T14:03:55;100145.72;;;18.09;48.38
60319;BME280;46163;52.306;5.634;2023-03-14T14:06:53;100160.53;;;18.12;48.30
60319;BME280;46163;52.306;5.634;2023-03-14T14:09:21;100170.75;;;18.15;48.13
60319;BME280;46163;52.306;5.634;2023-03-14T14:12:00;100179.41;;;18.17;48.31
60319;BME280;46163;52.306;5.634;2023-03-14T14:14:34;100188.56;;;18.16;48.33
60319;BME280;46163;52.306;5.634;2023-03-14T14:17:02;100194.22;;;18.19;48.76
60319;BME280;46163;52.306;5.634;2023-03-14T14:19:32;100204.44;;;18.22;48.80
60319;BME280;46163;52.306;5.634;2023-03-14T14:21:59;100199.06;;;18.22;48.02
60319;BME280;46163;52.306;5.634;2023-03-14T14:24:29;100199.88;;;18.23;48.80